Time;durP1;ratioP1;P1;durP2;ratioP2;P2;SDS_P1;SDS_P2;PMS_P1;PMS_P2;Temp;Humidity;BMP_temperature;BMP_pressure;BME280_temperature;BME280_humidity;BME280_pressure;Samples;Min_cycle;Max_cycle;Signal;HPM_P1;HPM_P2
2023/02/14 00:07:59;;;;;;;21.20;13.20;;;;;;;3.15;89.24;100318.38;436807;1248;97971;-40
2023/02/14 00:18:07;;;;;;;22.30;13.10;;;;;;;3.16;89.28;100325.39;436304;1250;108137;-39
2023/02/14 00:28:14;;;;;;;26.10;14.90;;;;;;;3.20;89.39;100333.08;436111;1248;97976;-40
2023/02/14 00:38:21;;;;;;;25.20;15.40;;;;;;;3.17;89.35;100339.31;436168;1248;112881;-39
2023/02/14 00:48:28;;;;;;;28.70;14.80;;;;;;;3.08;89.31;100345.26;436089;1254;108245;-40
2023/02/14 00:58:35;;;;;;;16.90;12.10;;;;;;;3.04;89.21;100342.34;436178;1248;99244;-39
2023/02/14 01:08:42;;;;;;;20.60;11.30;;;;;;;3.06;89.30;100330.95;436143;1252;109233;-40
2023/02/14 01:18:50;;;;;;;16.40;10.00;;;;;;;3.10;89.34;100328.07;436535;1251;99195;-42
2023/02/14 01:28:58;;;;;;;24.00;14.30;;;;;;;3.08;89.38;100319.35;436548;1251;110967;-40
2023/02/14 01:39:08;;;;;;;33.70;17.60;;;;;;;3.00;89.35;100310.30;436568;1251;109501;-40
2023/02/14 01:49:18;;;;;;;20.20;15.20;;;;;;;2.97;89.27;100306.60;436518;1248;99225;-40
2023/02/14 01:59:25;;;;;;;;;;;;;;;2.99;89.32;100305.49;436752;1250;111155;-39
2023/02/14 02:09:30;;;;;;;123.10;46.20;;;;;;;3.03;89.39;100301.30;436533;1250;108378;-40
2023/02/14 02:40:42;;;;;;;35.20;16.10;;;;;;;2.91;89.61;100295.99;437537;1247;109010;-39
2023/02/14 03:01:20;;;;;;;20.50;11.50;;;;;;;2.95;89.47;100291.42;437633;1250;112234;-39
2023/02/14 03:11:28;;;;;;;13.40;9.40;;;;;;;3.02;89.51;100291.27;437511;1246;107162;-39
2023/02/14 03:21:34;;;;;;;16.20;10.10;;;;;;;3.05;89.52;100286.33;437497;1250;99217;-40
2023/02/14 03:31:44;;;;;;;24.30;13.50;;;;;;;3.02;89.53;100285.34;437324;1251;336873;-39
2023/02/14 03:41:53;;;;;;;15.10;11.10;;;;;;;2.94;89.59;100288.34;437567;1248;99224;-40
2023/02/14 03:52:02;;;;;;;15.60;10.20;;;;;;;2.95;89.62;100286.58;437460;1251;111966;-39
2023/02/14 04:02:15;;;;;;;15.30;9.40;;;;;;;2.98;89.45;100293.88;437487;1250;106568;-40
2023/02/14 04:12:23;;;;;;;25.00;13.80;;;;;;;3.00;89.56;100299.33;437495;1250;99085;-39
2023/02/14 04:22:45;;;;;;;26.10;13.40;;;;;;;3.00;89.52;100298.94;437570;1250;108684;-40
2023/02/14 04:32:52;;;;;;;26.40;13.60;;;;;;;2.97;89.52;100297.33;437440;1248;98087;-38
2023/02/14 04:42:59;;;;;;;19.00;11.70;;;;;;;2.89;89.57;100314.08;437549;1250;111820;-40
2023/02/14 04:53:06;;;;;;;18.90;12.80;;;;;;;2.90;89.48;100322.04;437611;1248;107813;-40
2023/02/14 05:03:14;;;;;;;23.90;12.50;;;;;;;2.90;89.44;100322.01;437495;1250;98830;-38
2023/02/14 05:13:21;;;;;;;20.80;12.20;;;;;;;2.90;89.61;100325.05;437391;1247;107733;-40
2023/02/14 05:23:29;;;;;;;30.10;18.00;;;;;;;2.87;89.75;100328.97;437683;1250;98787;-39
2023/02/14 05:33:37;;;;;;;48.40;24.60;;;;;;;2.79;89.70;100330.83;437744;1249;111127;-38
2023/02/14 05:43:44;;;;;;;22.60;14.50;;;;;;;2.74;89.69;100334.25;437619;1247;108150;-40
2023/02/14 05:53:51;;;;;;;25.10;14.70;;;;;;;2.75;89.67;100344.26;437448;1250;98511;-39
2023/02/14 06:03:59;;;;;;;25.60;15.00;;;;;;;2.76;89.76;100354.58;437480;1260;111422;-39
2023/02/14 06:14:07;;;;;;;25.20;14.50;;;;;;;2.84;89.81;100358.50;437610;1248;108694;-39
2023/02/14 06:24:14;;;;;;;37.20;20.10;;;;;;;2.83;89.91;100363.59;437669;1250;99330;-40
2023/02/14 06:34:21;;;;;;;42.90;20.60;;;;;;;2.77;89.97;100374.59;437566;1250;111714;-40
2023/02/14 06:44:28;;;;;;;24.30;16.00;;;;;;;2.76;89.99;100386.79;437499;1252;108547;-40
2023/02/14 06:54:36;;;;;;;22.10;14.10;;;;;;;2.85;89.88;100387.61;437585;1248;99214;-40
2023/02/14 07:04:43;;;;;;;24.80;13.80;;;;;;;2.94;89.97;100386.45;437537;1248;112110;-40
2023/02/14 07:14:51;;;;;;;24.50;14.30;;;;;;;3.04;90.01;100383.77;437568;1248;108488;-40
2023/02/14 07:24:58;;;;;;;33.40;19.20;;;;;;;3.14;90.23;100382.38;438439;1258;98323;-38
2023/02/14 07:35:04;;;;;;;84.80;43.80;;;;;;;3.14;90.26;100384.20;437667;1250;107644;-39
2023/02/14 07:45:09;;;;;;;29.10;17.90;;;;;;;3.21;90.15;100391.30;437476;1254;98007;-40
2023/02/14 07:55:28;;;;;;;30.90;18.20;;;;;;;3.33;90.11;100392.83;437568;1260;111232;-40
2023/02/14 08:05:35;;;;;;;25.70;16.50;;;;;;;3.44;90.22;100394.85;437411;1250;107192;-42
2023/02/14 08:26:07;;;;;;;29.60;18.70;;;;;;;3.58;90.27;100396.63;437727;1250;108784;-39
2023/02/14 08:36:16;;;;;;;26.60;15.30;;;;;;;3.65;90.10;100397.70;437457;1250;99232;-38
2023/02/14 08:46:24;;;;;;;20.60;13.40;;;;;;;3.80;90.04;100408.26;438447;1252;110886;-39
2023/02/14 08:56:31;;;;;;;18.40;12.40;;;;;;;3.86;89.85;100421.24;437487;1248;108625;-39
2023/02/14 09:06:39;;;;;;;30.60;16.60;;;;;;;3.90;89.91;100426.16;437592;1247;99237;-40
2023/02/14 09:16:46;;;;;;;26.70;15.10;;;;;;;3.89;89.85;100435.41;437433;1251;106886;-40
2023/02/14 09:26:54;;;;;;;22.00;15.00;;;;;;;3.93;89.52;100435.95;437312;1251;98816;-40
2023/02/14 09:37:01;;;;;;;22.70;12.10;;;;;;;3.95;89.36;100438.17;437609;1250;110186;-42
2023/02/14 09:47:12;;;;;;;17.10;11.00;;;;;;;4.07;89.45;100440.08;439656;1250;108261;-39
2023/02/14 09:57:21;;;;;;;27.70;15.20;;;;;;;4.09;89.29;100447.17;437667;1250;97984;-40
2023/02/14 10:07:28;;;;;;;19.20;12.70;;;;;;;4.14;89.16;100447.39;439326;1247;108795;-40
2023/02/14 10:17:35;;;;;;;14.20;10.50;;;;;;;4.26;88.53;100445.69;440495;1247;98015;-40
2023/02/14 10:27:45;;;;;;;24.50;14.40;;;;;;;4.36;88.14;100435.73;438485;1250;110271;-40
2023/02/14 10:37:53;;;;;;;30.70;18.50;;;;;;;4.32;87.95;100439.08;437886;1248;107600;-40
2023/02/14 10:47:58;;;;;;;22.60;13.80;;;;;;;4.36;88.01;100445.15;437510;1247;98403;-41
2023/02/14 10:58:11;;;;;;;19.10;12.70;;;;;;;4.49;87.64;100438.65;437414;1251;108671;-40
2023/02/14 11:08:18;;;;;;;23.10;15.40;;;;;;;4.63;87.40;100431.38;437420;1248;98372;-40
2023/02/14 11:28:37;;;;;;;19.50;14.60;;;;;;;4.74;87.10;100427.20;437406;1250;107792;-40
2023/02/14 11:38:58;;;;;;;22.50;15.50;;;;;;;4.82;86.41;100416.39;437467;1250;98084;-40
2023/02/14 11:49:15;;;;;;;29.00;18.60;;;;;;;4.89;86.54;100415.17;437531;1250;107854;-40
2023/02/14 11:59:28;;;;;;;24.90;17.70;;;;;;;4.98;86.55;100403.86;437515;1247;99237;-40
2023/02/14 12:09:39;;;;;;;18.30;12.80;;;;;;;5.08;85.96;100395.69;437553;1247;111004;-39
2023/02/14 12:19:49;;;;;;;20.70;11.30;;;;;;;5.21;85.76;100377.47;437449;1248;107219;-39
2023/02/14 12:30:03;;;;;;;27.00;16.20;;;;;;;5.34;85.54;100373.75;437567;1248;99217;-40
2023/02/14 12:40:10;;;;;;;27.20;17.90;;;;;;;5.37;85.18;100363.28;437300;1250;107892;-39
2023/02/14 12:50:43;;;;;;;20.30;12.60;;;;;;;5.42;85.13;100358.21;437507;1250;99287;-40
2023/02/14 13:00:48;;;;;;;17.20;12.80;;;;;;;5.52;85.13;100355.23;437109;1247;111670;-39
2023/02/14 13:10:54;;;;;;;33.80;19.30;;;;;;;5.56;85.17;100348.61;437297;1250;107256;-40
2023/02/14 13:21:04;;;;;;;27.70;16.00;;;;;;;5.48;84.57;100347.98;437315;1247;98322;-40
2023/02/14 13:31:13;;;;;;;18.00;12.00;;;;;;;5.49;84.22;100346.45;437303;1247;110437;-40
2023/02/14 13:41:21;;;;;;;18.80;11.70;;;;;;;5.50;83.93;100338.36;437197;1250;107836;-39
2023/02/14 13:51:46;;;;;;;19.20;12.90;;;;;;;5.49;83.88;100337.52;437343;1250;99118;-40
2023/02/14 14:01:53;;;;;;;17.40;11.60;;;;;;;5.41;83.63;100337.11;437357;1250;107962;-39
2023/02/14 14:12:00;;;;;;;16.90;11.20;;;;;;;5.33;83.11;100332.54;437201;1250;97970;-40
2023/02/14 14:32:26;;;;;;;20.20;14.00;;;;;;;5.48;83.50;100330.34;437397;1250;108367;-39
2023/02/14 14:42:38;;;;;;;23.90;16.40;;;;;;;5.42;83.62;100325.52;437345;1247;98795;-40
2023/02/14 14:52:49;;;;;;;21.80;15.20;;;;;;;5.28;83.37;100320.31;437453;1250;108132;-41
2023/02/14 15:03:01;;;;;;;19.40;13.30;;;;;;;5.13;83.06;100317.91;437439;1247;99208;-40
2023/02/14 15:23:38;;;;;;;39.70;24.20;;;;;;;4.80;83.13;100328.90;437229;1250;108524;-39
2023/02/14 15:33:46;;;;;;;27.50;19.90;;;;;;;4.69;83.42;100334.01;437115;1249;438990;-38
2023/02/14 15:43:56;;;;;;;30.00;20.60;;;;;;;4.52;83.25;100341.95;437586;1247;110320;-41
2023/02/14 15:54:06;;;;;;;22.30;15.80;;;;;;;4.47;83.35;100341.58;437359;1246;108559;-39
2023/02/14 16:04:14;;;;;;;16.10;12.80;;;;;;;4.45;83.45;100345.62;437338;1250;97986;-39
2023/02/14 16:14:29;;;;;;;29.70;18.30;;;;;;;4.41;83.30;100354.41;437396;1247;112277;-39
2023/02/14 16:34:45;;;;;;;28.20;17.60;;;;;;;4.25;83.72;100367.66;437296;1250;99227;-39
2023/02/14 16:44:54;;;;;;;33.60;21.50;;;;;;;4.14;83.77;100369.23;437321;1251;111647;-40
2023/02/14 16:55:02;;;;;;;37.20;24.40;;;;;;;4.12;83.89;100371.58;437349;1250;107605;-41
2023/02/14 17:05:07;;;;;;;27.30;19.00;;;;;;;4.13;83.88;100373.72;437260;1251;98307;-41
2023/02/14 17:15:12;;;;;;;49.30;28.70;;;;;;;4.13;84.07;100378.01;437258;1247;111948;-39
2023/02/14 17:25:19;;;;;;;36.60;23.80;;;;;;;4.07;84.14;100379.35;437470;1250;108106;-40
2023/02/14 17:35:27;;;;;;;38.10;25.80;;;;;;;3.97;84.10;100371.70;437549;1247;98798;-40
2023/02/14 17:45:34;;;;;;;72.90;42.20;;;;;;;3.88;84.24;100375.70;437392;1247;111857;-40
2023/02/14 17:55:41;;;;;;;70.70;38.70;;;;;;;3.89;84.11;100376.98;437235;1250;107403;-40
2023/02/14 18:05:48;;;;;;;94.70;48.40;;;;;;;3.94;84.15;100379.27;437414;1250;99284;-40
2023/02/14 18:15:56;;;;;;;76.00;42.20;;;;;;;3.97;84.25;100381.30;437476;1250;107870;-40
2023/02/14 18:26:06;;;;;;;115.80;55.50;;;;;;;3.91;84.44;100378.41;437412;1250;99233;-38
2023/02/14 18:36:15;;;;;;;132.10;59.90;;;;;;;3.87;84.54;100377.52;437359;1247;112867;-40
2023/02/14 18:46:25;;;;;;;75.70;39.60;;;;;;;3.77;84.40;100375.32;437373;1250;107849;-40
2023/02/14 18:56:31;;;;;;;;;;;;;;;3.73;84.39;100371.17;437324;1250;99242;-41
2023/02/14 19:06:40;;;;;;;73.60;40.90;;;;;;;3.75;84.43;100367.12;437352;1250;107186;-40
2023/02/14 19:26:57;;;;;;;45.00;29.80;;;;;;;3.75;84.66;100359.51;437531;1246;111486;-40
2023/02/14 19:37:05;;;;;;;123.00;52.70;;;;;;;3.66;84.63;100363.24;437469;1250;108704;-40
2023/02/14 19:47:10;;;;;;;63.20;36.00;;;;;;;3.57;84.64;100367.96;437504;1250;99233;-40
2023/02/14 19:57:35;;;;;;;59.30;36.30;;;;;;;3.58;84.58;100366.96;437455;1250;111197;-40
2023/02/14 20:17:49;;;;;;;69.70;42.70;;;;;;;3.75;84.73;100360.23;437683;1250;99249;-40
2023/02/14 20:27:57;;;;;;;75.50;39.90;;;;;;;3.72;84.71;100358.66;437442;1246;111493;-41
2023/02/14 20:48:10;;;;;;;84.50;37.50;;;;;;;3.52;84.74;100355.21;437514;1250;99202;-40
2023/02/14 20:58:18;;;;;;;45.40;28.80;;;;;;;3.50;84.53;100359.14;437512;1248;111420;-41
2023/02/14 21:08:24;;;;;;;53.30;32.20;;;;;;;3.60;84.79;100359.52;438101;1248;107598;-40
2023/02/14 21:18:31;;;;;;;60.90;29.60;;;;;;;3.70;84.79;100356.48;438333;1250;97958;-40
2023/02/14 21:28:38;;;;;;;45.80;27.20;;;;;;;3.64;84.79;100352.67;437804;1250;112873;-41
2023/02/14 21:38:45;;;;;;;58.30;30.50;;;;;;;3.54;84.71;100342.14;437474;1250;107276;-40
2023/02/14 21:59:18;;;;;;;36.70;26.00;;;;;;;3.36;84.52;100322.55;437567;1250;115045;-40
2023/02/14 22:09:25;;;;;;;30.80;22.70;;;;;;;3.37;84.52;100318.55;437425;1247;108527;-40
2023/02/14 22:19:34;;;;;;;47.80;28.00;;;;;;;3.40;84.80;100311.30;437340;1250;99304;-39
2023/02/14 22:29:41;;;;;;;67.80;36.50;;;;;;;3.37;84.76;100314.20;437511;1250;107622;-40
2023/02/14 22:39:49;;;;;;;75.70;41.80;;;;;;;3.32;84.76;100312.91;437488;1248;99234;-40
2023/02/14 22:49:56;;;;;;;85.00;43.00;;;;;;;3.23;84.77;100316.54;437408;1250;111902;-40
2023/02/14 23:00:10;;;;;;;78.90;40.00;;;;;;;3.14;84.85;100317.25;437526;1250;106352;-40
2023/02/14 23:10:16;;;;;;;56.20;35.40;;;;;;;3.15;84.67;100316.81;437415;1250;98040;-43
2023/02/14 23:30:48;;;;;;;58.80;32.00;;;;;;;3.25;84.82;100302.93;437416;1250;99253;-40
2023/02/14 23:51:21;;;;;;;54.90;31.90;;;;;;;3.09;84.81;100292.60;437627;1250;108146;-40
